createdAt,value
2023-04-06T00:00:00.469Z,5.3
2023-04-06T00:01:00.452Z,5.3
2023-04-06T00:02:00.514Z,5.4
2023-04-06T00:03:00.472Z,5.4
2023-04-06T00:04:00.469Z,5.3
2023-04-06T00:05:00.421Z,5.3
2023-04-06T00:06:00.429Z,5.3
2023-04-06T00:07:00.464Z,5.3
2023-04-06T00:08:00.449Z,5.3
2023-04-06T00:09:00.500Z,5.3
2023-04-06T00:10:00.446Z,5.2
2023-04-06T00:11:00.432Z,5.2
2023-04-06T00:12:00.459Z,5.2
2023-04-06T00:13:00.479Z,5.2
2023-04-06T00:14:00.430Z,5.3
2023-04-06T00:15:00.526Z,5.3
2023-04-06T00:16:00.455Z,5.3
2023-04-06T00:17:00.500Z,5.3
2023-04-06T00:18:00.527Z,5.2
2023-04-06T00:19:00.462Z,5.2
2023-04-06T00:20:00.444Z,5.2
2023-04-06T00:21:00.442Z,5.2
2023-04-06T00:22:00.545Z,5.1
2023-04-06T00:23:00.482Z,5.1
2023-04-06T00:24:00.436Z,5.2
2023-04-06T00:25:00.449Z,5.2
2023-04-06T00:26:00.446Z,5.1
2023-04-06T00:27:01.169Z,5.1
2023-04-06T00:28:00.439Z,5.1
2023-04-06T00:29:00.433Z,5.1
2023-04-06T00:30:00.454Z,5.1
2023-04-06T00:31:00.463Z,5.1
2023-04-06T00:32:00.531Z,5.1
2023-04-06T00:33:00.492Z,5.1
2023-04-06T00:34:00.434Z,5.1
2023-04-06T00:35:02.036Z,5.1
2023-04-06T00:36:00.538Z,5.0
2023-04-06T00:37:00.478Z,5.0
2023-04-06T00:38:00.693Z,5.0
2023-04-06T00:39:00.463Z,5.0
2023-04-06T00:40:00.515Z,5.0
2023-04-06T00:41:00.587Z,5.0
2023-04-06T00:42:07.374Z,5.0
2023-04-06T00:43:00.504Z,5.0
2023-04-06T00:44:00.465Z,5.0
2023-04-06T00:45:00.936Z,5.0
2023-04-06T00:46:00.523Z,5.0
2023-04-06T00:47:00.467Z,5.0
2023-04-06T00:48:00.698Z,4.9
2023-04-06T00:49:00.496Z,4.9
2023-04-06T00:50:00.512Z,4.8
2023-04-06T00:51:00.849Z,4.8
2023-04-06T00:52:00.752Z,4.8
2023-04-06T00:53:00.652Z,4.8
2023-04-06T00:54:00.454Z,4.8
2023-04-06T00:55:00.449Z,4.8
2023-04-06T00:56:00.490Z,4.7
2023-04-06T00:57:00.475Z,4.7
2023-04-06T00:58:00.454Z,4.8
2023-04-06T00:59:00.549Z,4.8
2023-04-06T01:00:00.562Z,4.7
2023-04-06T01:01:00.526Z,4.7
2023-04-06T01:02:00.685Z,4.6
2023-04-06T01:03:00.536Z,4.6
2023-04-06T01:04:01.024Z,4.7
2023-04-06T01:05:00.545Z,4.7
2023-04-06T01:06:00.471Z,4.7
2023-04-06T01:07:00.872Z,4.7
2023-04-06T01:08:00.524Z,4.6
2023-04-06T01:09:00.497Z,4.6
2023-04-06T01:10:00.495Z,4.4
2023-04-06T01:11:00.467Z,4.4
2023-04-06T01:12:00.453Z,4.5
2023-04-06T01:13:00.469Z,4.5
2023-04-06T01:14:00.495Z,4.6
2023-04-06T01:15:00.541Z,4.6
2023-04-06T01:16:00.747Z,4.5
2023-04-06T01:17:00.510Z,4.5
2023-04-06T01:18:00.520Z,4.5
2023-04-06T01:19:00.508Z,4.5
2023-04-06T01:20:00.467Z,4.5
2023-04-06T01:21:00.483Z,4.5
2023-04-06T01:22:00.463Z,4.6
2023-04-06T01:23:00.466Z,4.6
2023-04-06T01:24:00.474Z,4.4
2023-04-06T01:25:00.483Z,4.4
2023-04-06T01:26:00.451Z,4.5
2023-04-06T01:27:00.485Z,4.5
2023-04-06T01:28:00.484Z,4.5
2023-04-06T01:29:00.703Z,4.5
2023-04-06T01:30:00.486Z,4.5
2023-04-06T01:31:00.473Z,4.5
2023-04-06T01:32:00.460Z,4.5
2023-04-06T01:33:00.488Z,4.5
2023-04-06T01:34:00.433Z,4.5
2023-04-06T01:35:00.452Z,4.5
2023-04-06T01:36:00.660Z,4.5
2023-04-06T01:37:00.476Z,4.5
2023-04-06T01:38:00.465Z,4.5
2023-04-06T01:39:00.626Z,4.5
2023-04-06T01:40:00.497Z,4.4
2023-04-06T01:41:00.450Z,4.4
2023-04-06T01:42:00.470Z,4.5
2023-04-06T01:43:00.519Z,4.5
2023-04-06T01:44:01.029Z,4.5
2023-04-06T01:45:00.480Z,4.5
2023-04-06T01:46:00.583Z,4.5
2023-04-06T01:47:00.496Z,4.5
2023-04-06T01:48:00.459Z,4.5
2023-04-06T01:49:00.439Z,4.5
2023-04-06T01:50:00.435Z,4.5
2023-04-06T01:51:00.471Z,4.5
2023-04-06T01:52:00.453Z,4.5
2023-04-06T01:53:00.450Z,4.5
2023-04-06T01:54:00.456Z,4.5
2023-04-06T01:55:00.435Z,4.5
2023-04-06T01:56:00.464Z,4.5
2023-04-06T01:57:00.439Z,4.5
2023-04-06T01:58:00.434Z,4.5
2023-04-06T01:59:00.445Z,4.5
2023-04-06T02:00:00.438Z,4.5
2023-04-06T02:01:00.556Z,4.5
2023-04-06T02:02:00.506Z,4.5
2023-04-06T02:03:00.529Z,4.5
2023-04-06T02:04:00.434Z,4.5
2023-04-06T02:05:00.460Z,4.5
2023-04-06T02:06:00.454Z,4.5
2023-04-06T02:07:00.450Z,4.5
2023-04-06T02:08:00.433Z,4.5
2023-04-06T02:09:00.449Z,4.5
2023-04-06T02:10:00.430Z,4.5
2023-04-06T02:11:00.447Z,4.5
2023-04-06T02:12:00.452Z,4.5
2023-04-06T02:13:00.870Z,4.5
2023-04-06T02:14:00.449Z,4.5
2023-04-06T02:15:00.439Z,4.5
2023-04-06T02:16:00.492Z,4.6
2023-04-06T02:17:00.457Z,4.6
2023-04-06T02:18:00.486Z,4.5
2023-04-06T02:19:00.424Z,4.5
2023-04-06T02:20:00.435Z,4.6
2023-04-06T02:21:00.454Z,4.6
2023-04-06T02:22:00.428Z,4.6
2023-04-06T02:23:00.443Z,4.6
2023-04-06T02:24:00.469Z,4.5
2023-04-06T02:25:00.558Z,4.5
2023-04-06T02:26:00.435Z,4.6
2023-04-06T02:27:00.456Z,4.6
2023-04-06T02:28:00.426Z,4.7
2023-04-06T02:29:00.493Z,4.7
2023-04-06T02:30:00.434Z,4.6
2023-04-06T02:31:00.449Z,4.6
2023-04-06T02:32:00.572Z,4.7
2023-04-06T02:33:00.872Z,4.7
2023-04-06T02:34:00.441Z,4.7
2023-04-06T02:35:00.435Z,4.7
2023-04-06T02:36:00.454Z,4.6
2023-04-06T02:37:00.442Z,4.6
2023-04-06T02:38:00.451Z,4.7
2023-04-06T02:39:00.443Z,4.7
2023-04-06T02:40:00.469Z,4.8
2023-04-06T02:41:00.435Z,4.8
2023-04-06T02:42:00.433Z,4.8
2023-04-06T02:43:00.431Z,4.8
2023-04-06T02:44:00.447Z,4.8
2023-04-06T02:45:00.454Z,4.8
2023-04-06T02:46:00.479Z,4.8
2023-04-06T02:47:00.493Z,4.8
2023-04-06T02:48:00.464Z,4.9
2023-04-06T02:49:00.442Z,4.9
2023-04-06T02:50:00.526Z,4.9
2023-04-06T02:51:00.460Z,4.9
2023-04-06T02:52:00.463Z,4.8
2023-04-06T02:53:00.446Z,4.8
2023-04-06T02:54:00.442Z,4.9
2023-04-06T02:55:00.436Z,4.9
2023-04-06T02:56:00.517Z,4.8
2023-04-06T02:57:00.446Z,4.8
2023-04-06T02:58:00.438Z,4.8
2023-04-06T02:59:00.485Z,4.8
2023-04-06T03:00:00.446Z,4.9
2023-04-06T03:01:00.471Z,4.9
2023-04-06T03:02:00.466Z,4.9
2023-04-06T03:03:00.517Z,4.9
2023-04-06T03:04:00.440Z,4.9
2023-04-06T03:05:00.455Z,4.9
2023-04-06T03:06:00.446Z,4.9
2023-04-06T03:07:01.580Z,4.9
2023-04-06T03:08:00.458Z,4.9
2023-04-06T03:09:00.442Z,4.9
2023-04-06T03:10:00.437Z,4.8
2023-04-06T03:11:00.445Z,4.8
2023-04-06T03:12:00.424Z,5.0
2023-04-06T03:13:00.435Z,5.0
2023-04-06T03:14:00.462Z,5.0
2023-04-06T03:15:00.487Z,5.0
2023-04-06T03:16:00.581Z,4.9
2023-04-06T03:17:00.434Z,4.9
2023-04-06T03:18:00.768Z,4.9
2023-04-06T03:19:00.430Z,4.9
2023-04-06T03:20:00.470Z,4.9
2023-04-06T03:21:00.453Z,4.9
2023-04-06T03:22:00.449Z,5.0
2023-04-06T03:23:00.440Z,5.0
2023-04-06T03:24:00.420Z,4.9
2023-04-06T03:25:03.020Z,4.9
2023-04-06T03:26:01.185Z,4.9
2023-04-06T03:27:00.435Z,4.9
2023-04-06T03:28:00.438Z,5.0
2023-04-06T03:29:00.445Z,5.0
2023-04-06T03:30:00.449Z,4.9
2023-04-06T03:31:00.475Z,4.9
2023-04-06T03:32:00.428Z,5.0
2023-04-06T03:33:00.499Z,5.0
2023-04-06T03:34:00.455Z,5.0
2023-04-06T03:35:00.416Z,5.0
2023-04-06T03:36:00.473Z,4.9
2023-04-06T03:37:09.955Z,4.9
2023-04-06T03:38:00.438Z,4.9
2023-04-06T03:39:00.522Z,4.9
2023-04-06T03:40:00.444Z,5.0
2023-04-06T03:41:00.420Z,5.0
2023-04-06T03:42:00.437Z,4.9
2023-04-06T03:43:00.449Z,4.9
2023-04-06T03:44:00.475Z,5.0
2023-04-06T03:45:00.454Z,5.0
2023-04-06T03:46:00.432Z,4.8
2023-04-06T03:47:00.475Z,4.8
2023-04-06T03:48:00.498Z,4.9
2023-04-06T03:49:00.460Z,4.9
2023-04-06T03:50:00.508Z,4.9
2023-04-06T03:51:00.450Z,4.9
2023-04-06T03:52:00.886Z,5.0
2023-04-06T03:53:00.440Z,5.0
2023-04-06T03:54:00.451Z,4.9
2023-04-06T03:55:00.441Z,4.9
2023-04-06T03:56:02.142Z,4.9
2023-04-06T03:57:00.447Z,4.9
2023-04-06T03:58:00.435Z,4.9
2023-04-06T03:59:00.480Z,4.9
2023-04-06T04:00:00.444Z,4.8
2023-04-06T04:01:00.426Z,4.8
2023-04-06T04:02:00.510Z,4.8
2023-04-06T04:03:00.619Z,4.8
2023-04-06T04:04:00.695Z,4.9
2023-04-06T04:05:00.478Z,4.9
2023-04-06T04:06:00.443Z,4.9
2023-04-06T04:07:00.449Z,4.9
2023-04-06T04:08:00.447Z,4.8
2023-04-06T04:09:00.450Z,4.8
2023-04-06T04:10:00.425Z,4.9
2023-04-06T04:11:00.422Z,4.9
2023-04-06T04:12:00.436Z,4.9
2023-04-06T04:13:00.428Z,4.9
2023-04-06T04:14:00.424Z,4.9
2023-04-06T04:15:00.452Z,4.9
2023-04-06T04:16:00.555Z,4.9
2023-04-06T04:17:00.478Z,4.9
2023-04-06T04:18:00.551Z,4.9
2023-04-06T04:19:00.423Z,4.9
2023-04-06T04:20:00.458Z,5.0
2023-04-06T04:21:00.439Z,5.0
2023-04-06T04:22:00.429Z,4.8
2023-04-06T04:23:00.446Z,4.8
2023-04-06T04:24:00.433Z,4.8
2023-04-06T04:25:00.439Z,4.8
2023-04-06T04:26:00.443Z,4.8
2023-04-06T04:27:00.430Z,4.8
2023-04-06T04:28:00.466Z,4.8
2023-04-06T04:29:00.434Z,4.8
2023-04-06T04:30:00.488Z,4.7
2023-04-06T04:31:00.448Z,4.7
2023-04-06T04:32:00.530Z,4.8
2023-04-06T04:33:00.465Z,4.8
2023-04-06T04:34:00.435Z,4.8
2023-04-06T04:35:00.434Z,4.8
2023-04-06T04:36:00.508Z,4.8
2023-04-06T04:37:00.432Z,4.8
2023-04-06T04:38:00.440Z,4.7
2023-04-06T04:39:00.446Z,4.7
2023-04-06T04:40:00.555Z,4.8
2023-04-06T04:41:00.432Z,4.8
2023-04-06T04:42:00.452Z,4.8
2023-04-06T04:43:00.424Z,4.8
2023-04-06T04:44:00.442Z,4.8
2023-04-06T04:45:00.525Z,4.8
2023-04-06T04:46:00.549Z,4.7
2023-04-06T04:47:00.428Z,4.7
2023-04-06T04:48:00.520Z,4.8
2023-04-06T04:49:00.456Z,4.8
2023-04-06T04:50:00.481Z,4.9
2023-04-06T04:51:00.713Z,4.9
2023-04-06T04:52:00.452Z,4.8
2023-04-06T04:53:00.451Z,4.8
2023-04-06T04:54:00.448Z,4.8
2023-04-06T04:55:00.470Z,4.8
2023-04-06T04:56:00.460Z,4.8
2023-04-06T04:57:00.445Z,4.8
2023-04-06T04:58:00.427Z,4.8
2023-04-06T04:59:00.503Z,4.8
2023-04-06T05:00:00.457Z,4.8
2023-04-06T05:01:00.475Z,4.8
2023-04-06T05:02:00.514Z,4.8
2023-04-06T05:03:00.556Z,4.8
2023-04-06T05:04:00.444Z,4.8
2023-04-06T05:05:00.452Z,4.8
2023-04-06T05:06:00.456Z,4.8
2023-04-06T05:07:08.370Z,4.8
2023-04-06T05:08:01.415Z,4.8
2023-04-06T05:09:00.440Z,4.8
2023-04-06T05:10:00.459Z,4.7
2023-04-06T05:11:00.457Z,4.7
2023-04-06T05:12:00.482Z,4.7
2023-04-06T05:13:00.514Z,4.7
2023-04-06T05:14:01.821Z,4.7
2023-04-06T05:15:00.498Z,4.7
2023-04-06T05:16:00.519Z,4.8
2023-04-06T05:17:00.443Z,4.8
2023-04-06T05:18:00.973Z,4.7
2023-04-06T05:19:00.518Z,4.7
2023-04-06T05:20:00.470Z,4.7
2023-04-06T05:21:00.499Z,4.7
2023-04-06T05:22:00.443Z,4.7
2023-04-06T05:23:00.468Z,4.7
2023-04-06T05:24:00.464Z,4.8
2023-04-06T05:25:01.384Z,4.8
2023-04-06T05:26:00.487Z,4.8
2023-04-06T05:27:00.504Z,4.8
2023-04-06T05:28:00.496Z,4.8
2023-04-06T05:29:00.835Z,4.8
2023-04-06T05:30:00.740Z,4.8
2023-04-06T05:31:00.484Z,4.8
2023-04-06T05:32:01.010Z,4.8
2023-04-06T05:33:00.658Z,4.8
2023-04-06T05:34:00.474Z,4.8
2023-04-06T05:35:00.493Z,4.8
2023-04-06T05:36:00.550Z,4.8
2023-04-06T05:37:00.437Z,4.8
2023-04-06T05:38:00.455Z,4.8
2023-04-06T05:39:00.464Z,4.8
2023-04-06T05:40:00.447Z,4.8
2023-04-06T05:41:00.508Z,4.8
2023-04-06T05:42:02.764Z,4.9
2023-04-06T05:43:00.436Z,4.9
2023-04-06T05:44:00.445Z,5.0
2023-04-06T05:45:00.441Z,5.0
2023-04-06T05:46:00.442Z,5.0
2023-04-06T05:47:00.461Z,5.0
2023-04-06T05:48:01.048Z,4.9
2023-04-06T05:49:00.427Z,4.9
2023-04-06T05:50:00.463Z,5.1
2023-04-06T05:51:00.424Z,5.1
2023-04-06T05:52:00.602Z,5.0
2023-04-06T05:53:00.453Z,5.0
2023-04-06T05:54:00.445Z,5.1
2023-04-06T05:55:00.482Z,5.1
2023-04-06T05:56:00.987Z,5.0
2023-04-06T05:57:01.614Z,5.0
2023-04-06T05:58:00.446Z,5.1
2023-04-06T05:59:00.491Z,5.1
2023-04-06T06:00:00.610Z,5.1
2023-04-06T06:01:01.092Z,5.1
2023-04-06T06:02:00.501Z,5.2
2023-04-06T06:03:00.482Z,5.2
2023-04-06T06:04:00.881Z,5.1
2023-04-06T06:05:00.492Z,5.1
2023-04-06T06:06:01.076Z,5.1
2023-04-06T06:07:00.600Z,5.1
2023-04-06T06:08:00.441Z,5.2
2023-04-06T06:09:00.435Z,5.2
2023-04-06T06:10:00.480Z,5.3
2023-04-06T06:11:01.604Z,5.3
2023-04-06T06:12:00.442Z,5.3
2023-04-06T06:13:00.452Z,5.3
2023-04-06T06:14:00.428Z,5.3
2023-04-06T06:15:00.475Z,5.3
2023-04-06T06:16:00.474Z,5.4
2023-04-06T06:17:00.524Z,5.4
2023-04-06T06:18:00.514Z,5.3
2023-04-06T06:19:00.466Z,5.3
2023-04-06T06:20:00.458Z,5.4
2023-04-06T06:21:00.432Z,5.4
2023-04-06T06:22:00.454Z,5.4
2023-04-06T06:23:00.435Z,5.4
2023-04-06T06:24:00.710Z,5.3
2023-04-06T06:25:00.432Z,5.3
2023-04-06T06:26:00.454Z,5.4
2023-04-06T06:27:00.456Z,5.4
2023-04-06T06:28:00.429Z,5.6
2023-04-06T06:29:00.450Z,5.6
2023-04-06T06:30:00.488Z,5.6
2023-04-06T06:31:00.436Z,5.6
2023-04-06T06:32:00.546Z,5.6
2023-04-06T06:33:00.498Z,5.6
2023-04-06T06:34:00.846Z,5.6
2023-04-06T06:35:00.475Z,5.6
2023-04-06T06:36:00.457Z,5.6
2023-04-06T06:37:00.430Z,5.6
2023-04-06T06:38:00.456Z,5.8
2023-04-06T06:39:00.446Z,5.8
2023-04-06T06:40:00.438Z,5.6
2023-04-06T06:41:00.436Z,5.6
2023-04-06T06:42:00.462Z,5.7
2023-04-06T06:43:00.465Z,5.7
2023-04-06T06:44:00.446Z,5.7
2023-04-06T06:45:00.922Z,5.7
2023-04-06T06:46:00.530Z,5.8
2023-04-06T06:47:00.473Z,5.8
2023-04-06T06:48:00.474Z,5.9
2023-04-06T06:49:00.445Z,5.9
2023-04-06T06:50:00.460Z,6.0
2023-04-06T06:51:00.697Z,6.0
2023-04-06T06:52:00.442Z,5.9
2023-04-06T06:53:00.457Z,5.9
2023-04-06T06:54:00.491Z,6.0
2023-04-06T06:55:00.475Z,6.0
2023-04-06T06:56:00.530Z,6.0
2023-04-06T06:57:00.459Z,6.0
2023-04-06T06:58:00.448Z,6.1
2023-04-06T06:59:00.533Z,6.1
2023-04-06T07:00:00.439Z,6.2
2023-04-06T07:01:00.705Z,6.2
2023-04-06T07:02:00.498Z,6.1
2023-04-06T07:03:00.582Z,6.1
2023-04-06T07:04:00.487Z,6.1
2023-04-06T07:05:00.437Z,6.1
2023-04-06T07:06:00.486Z,6.2
2023-04-06T07:07:00.444Z,6.2
2023-04-06T07:08:00.544Z,6.2
2023-04-06T07:09:00.473Z,6.2
2023-04-06T07:10:00.703Z,6.3
2023-04-06T07:11:00.463Z,6.3
2023-04-06T07:12:00.446Z,6.3
2023-04-06T07:13:00.461Z,6.3
2023-04-06T07:14:00.445Z,6.4
2023-04-06T07:15:00.741Z,6.4
2023-04-06T07:16:00.448Z,6.3
2023-04-06T07:17:00.485Z,6.3
2023-04-06T07:18:00.507Z,6.4
2023-04-06T07:19:00.461Z,6.4
2023-04-06T07:20:00.460Z,6.6
2023-04-06T07:21:00.449Z,6.6
2023-04-06T07:22:00.458Z,6.4
2023-04-06T07:23:00.449Z,6.4
2023-04-06T07:24:00.468Z,6.5
2023-04-06T07:25:00.481Z,6.5
2023-04-06T07:26:00.458Z,6.4
2023-04-06T07:27:00.528Z,6.4
2023-04-06T07:28:00.606Z,6.5
2023-04-06T07:29:00.438Z,6.5
2023-04-06T07:30:00.467Z,6.4
2023-04-06T07:31:00.593Z,6.4
2023-04-06T07:32:00.482Z,6.6
2023-04-06T07:33:00.518Z,6.6
2023-04-06T07:34:00.453Z,6.7
2023-04-06T07:35:00.443Z,6.7
2023-04-06T07:36:00.526Z,6.6
2023-04-06T07:37:03.096Z,6.6
2023-04-06T07:38:00.451Z,6.6
2023-04-06T07:39:00.467Z,6.6
2023-04-06T07:40:00.477Z,6.6
2023-04-06T07:41:00.441Z,6.6
2023-04-06T07:42:00.477Z,6.7
2023-04-06T07:43:00.466Z,6.7
2023-04-06T07:44:00.454Z,6.8
2023-04-06T07:45:00.431Z,6.8
2023-04-06T07:46:00.464Z,6.9
2023-04-06T07:47:00.436Z,6.9
2023-04-06T07:48:00.486Z,6.9
2023-04-06T07:49:00.458Z,6.9
2023-04-06T07:50:00.441Z,7.1
2023-04-06T07:51:01.201Z,7.1
2023-04-06T07:52:00.557Z,7.1
2023-04-06T07:53:00.462Z,7.1
2023-04-06T07:54:00.430Z,7.1
2023-04-06T07:55:00.482Z,7.1
2023-04-06T07:56:00.468Z,7.1
2023-04-06T07:57:00.451Z,7.1
2023-04-06T07:58:00.429Z,7.2
2023-04-06T07:59:00.518Z,7.2
2023-04-06T08:00:00.480Z,7.3
2023-04-06T08:01:00.925Z,7.3
2023-04-06T08:02:00.513Z,7.3
2023-04-06T08:03:00.571Z,7.3
2023-04-06T08:04:00.647Z,7.4
2023-04-06T08:05:00.541Z,7.4
2023-04-06T08:06:00.517Z,7.5
2023-04-06T08:07:00.458Z,7.5
2023-04-06T08:08:00.458Z,7.6
2023-04-06T08:09:00.430Z,7.6
2023-04-06T08:10:00.453Z,7.6
2023-04-06T08:11:02.166Z,7.6
2023-04-06T08:12:00.449Z,7.6
2023-04-06T08:13:00.579Z,7.6
2023-04-06T08:14:00.434Z,7.7
2023-04-06T08:15:00.461Z,7.7
2023-04-06T08:16:00.479Z,7.6
2023-04-06T08:17:00.456Z,7.6
2023-04-06T08:18:00.515Z,7.7
2023-04-06T08:19:00.444Z,7.7
2023-04-06T08:20:00.594Z,7.7
2023-04-06T08:21:00.518Z,7.7
2023-04-06T08:22:00.622Z,7.9
2023-04-06T08:23:00.628Z,7.9
2023-04-06T08:24:00.634Z,7.8
2023-04-06T08:25:00.467Z,7.8
2023-04-06T08:26:00.474Z,8.0
2023-04-06T08:27:00.445Z,8.0
2023-04-06T08:28:00.462Z,8.0
2023-04-06T08:29:00.424Z,8.0
2023-04-06T08:30:00.545Z,8.1
2023-04-06T08:31:04.678Z,8.1
2023-04-06T08:32:00.459Z,8.1
2023-04-06T08:33:00.489Z,8.1
2023-04-06T08:34:00.805Z,8.1
2023-04-06T08:35:00.460Z,8.1
2023-04-06T08:36:06.281Z,8.4
2023-04-06T08:37:00.790Z,8.4
2023-04-06T08:38:00.538Z,8.3
2023-04-06T08:39:00.754Z,8.3
2023-04-06T08:40:00.456Z,8.4
2023-04-06T08:41:00.425Z,8.4
2023-04-06T08:42:01.187Z,8.4
2023-04-06T08:43:02.066Z,8.4
2023-04-06T08:44:01.191Z,8.5
2023-04-06T08:45:00.453Z,8.5
2023-04-06T08:46:00.572Z,8.6
2023-04-06T08:47:00.641Z,8.6
2023-04-06T08:48:02.496Z,8.6
2023-04-06T08:49:02.788Z,8.6
2023-04-06T08:50:02.658Z,8.5
2023-04-06T08:51:01.066Z,8.5
2023-04-06T08:52:00.499Z,8.6
2023-04-06T08:53:00.802Z,8.6
2023-04-06T08:54:00.446Z,8.7
2023-04-06T08:55:00.711Z,8.7
2023-04-06T08:56:01.168Z,8.6
2023-04-06T08:57:01.684Z,8.6
2023-04-06T08:58:00.759Z,8.6
2023-04-06T08:59:00.503Z,8.6
2023-04-06T09:00:00.895Z,8.6
2023-04-06T09:01:01.039Z,8.6
2023-04-06T09:02:03.145Z,8.6
2023-04-06T09:03:01.074Z,8.6
2023-04-06T09:04:00.687Z,8.6
2023-04-06T09:05:00.735Z,8.6
2023-04-06T09:06:00.815Z,8.7
2023-04-06T09:07:00.573Z,8.7
2023-04-06T09:08:00.466Z,8.7
2023-04-06T09:09:00.431Z,8.7
2023-04-06T09:10:00.474Z,8.8
2023-04-06T09:11:02.569Z,8.8
2023-04-06T09:12:00.451Z,8.8
2023-04-06T09:13:05.113Z,8.8
2023-04-06T09:14:00.447Z,8.9
2023-04-06T09:15:01.134Z,8.9
2023-04-06T09:16:01.814Z,8.8
2023-04-06T09:17:00.505Z,8.8
2023-04-06T09:19:04.011Z,8.9
2023-04-06T09:20:01.079Z,9.0
2023-04-06T09:21:01.271Z,9.0
2023-04-06T09:22:03.375Z,9.1
2023-04-06T09:23:00.458Z,9.1
2023-04-06T09:24:01.716Z,9.3
2023-04-06T09:25:00.451Z,9.3
2023-04-06T09:26:09.977Z,9.3
2023-04-06T09:27:00.452Z,9.3
2023-04-06T09:28:02.640Z,9.2
2023-04-06T09:29:00.434Z,9.2
2023-04-06T09:30:04.766Z,9.4
2023-04-06T09:31:00.460Z,9.4
2023-04-06T09:32:02.702Z,9.4
2023-04-06T09:33:00.906Z,9.4
2023-04-06T09:34:00.655Z,9.5
2023-04-06T09:35:08.215Z,9.5
2023-04-06T09:36:00.503Z,9.6
2023-04-06T09:37:00.494Z,9.6
2023-04-06T09:38:10.369Z,9.7
2023-04-06T09:39:01.666Z,9.7
2023-04-06T09:40:02.325Z,9.8
2023-04-06T09:41:01.557Z,9.8
2023-04-06T09:42:00.489Z,9.7
2023-04-06T09:43:00.470Z,9.7
2023-04-06T09:44:10.556Z,9.8
2023-04-06T09:45:01.343Z,9.8
2023-04-06T09:46:00.794Z,9.9
2023-04-06T09:47:01.446Z,9.9
2023-04-06T09:48:01.148Z,9.8
2023-04-06T09:49:01.807Z,9.8
2023-04-06T09:50:00.963Z,9.9
2023-04-06T09:51:03.117Z,9.9
2023-04-06T09:52:02.104Z,10.0
2023-04-06T09:53:01.035Z,10.0
2023-04-06T09:54:01.360Z,10.0
2023-04-06T09:55:02.240Z,10.0
2023-04-06T09:56:02.321Z,10.1
2023-04-06T09:57:12.596Z,10.1
2023-04-06T09:58:00.430Z,10.2
2023-04-06T09:59:02.498Z,10.2
2023-04-06T10:00:03.692Z,10.2
2023-04-06T10:01:09.635Z,10.2
2023-04-06T10:02:00.940Z,10.4
2023-04-06T10:03:01.550Z,10.4
2023-04-06T10:04:09.978Z,10.4
2023-04-06T10:05:05.236Z,10.4
2023-04-06T10:06:03.691Z,10.4
2023-04-06T10:07:02.076Z,10.4
2023-04-06T10:08:05.199Z,10.5
2023-04-06T10:09:01.560Z,10.5
2023-04-06T10:10:02.310Z,10.6
2023-04-06T10:11:01.918Z,10.6
2023-04-06T10:12:00.795Z,10.7
2023-04-06T10:13:00.464Z,10.7
2023-04-06T10:14:00.646Z,10.6
2023-04-06T10:15:00.491Z,10.6
2023-04-06T10:16:01.016Z,10.8
2023-04-06T10:17:01.826Z,10.8
2023-04-06T10:18:01.004Z,10.9
2023-04-06T10:19:04.699Z,10.9
2023-04-06T10:20:10.362Z,10.9
2023-04-06T10:21:04.136Z,10.9
2023-04-06T10:22:02.851Z,10.9
2023-04-06T10:23:10.374Z,10.9
2023-04-06T10:24:06.761Z,11.0
2023-04-06T10:25:00.482Z,11.0
2023-04-06T10:26:01.037Z,11.1
2023-04-06T10:27:02.097Z,11.1
2023-04-06T10:28:04.609Z,11.1
2023-04-06T10:29:02.910Z,11.1
2023-04-06T10:30:04.482Z,10.9
2023-04-06T10:31:01.442Z,10.9
2023-04-06T10:32:00.561Z,11.0
2023-04-06T10:33:00.836Z,11.0
2023-04-06T10:34:01.427Z,11.1
2023-04-06T10:35:08.507Z,11.1
2023-04-06T10:36:10.428Z,11.0
2023-04-06T10:37:10.161Z,11.0
2023-04-06T10:38:01.994Z,11.0
2023-04-06T10:39:01.814Z,11.0
2023-04-06T10:40:00.458Z,10.6
2023-04-06T10:41:09.177Z,10.6
2023-04-06T10:42:06.138Z,10.6
2023-04-06T10:43:10.424Z,10.6
2023-04-06T10:44:00.542Z,10.9
2023-04-06T10:45:00.475Z,10.9
2023-04-06T10:46:00.532Z,10.6
2023-04-06T10:47:00.470Z,10.6
2023-04-06T10:48:00.567Z,10.9
2023-04-06T10:49:10.389Z,10.9
2023-04-06T10:50:00.462Z,10.7
2023-04-06T10:51:00.435Z,10.7
2023-04-06T10:52:00.435Z,10.6
2023-04-06T10:53:01.297Z,10.6
2023-04-06T10:54:01.151Z,10.6
2023-04-06T10:55:01.235Z,10.6
2023-04-06T10:56:00.739Z,10.6
2023-04-06T10:57:00.450Z,10.6
2023-04-06T10:58:00.455Z,10.4
2023-04-06T10:59:00.488Z,10.4
2023-04-06T11:00:00.463Z,10.5
2023-04-06T11:01:00.565Z,10.5
2023-04-06T11:02:00.443Z,10.6
2023-04-06T11:03:00.754Z,10.6
2023-04-06T11:04:00.621Z,10.4
2023-04-06T11:05:00.539Z,10.4
2023-04-06T11:06:00.466Z,10.2
2023-04-06T11:07:00.427Z,10.2
2023-04-06T11:08:00.446Z,10.2
2023-04-06T11:09:00.471Z,10.2
2023-04-06T11:10:14.945Z,10.2
2023-04-06T11:11:10.367Z,10.2
2023-04-06T11:12:00.438Z,10.3
2023-04-06T11:13:00.433Z,10.3
2023-04-06T11:14:00.483Z,10.2
2023-04-06T11:15:01.609Z,10.2
2023-04-06T11:16:00.456Z,10.2
2023-04-06T11:17:00.518Z,10.2
2023-04-06T11:18:03.324Z,10.0
2023-04-06T11:19:02.561Z,10.0
2023-04-06T11:20:00.480Z,10.0
2023-04-06T11:21:00.449Z,10.0
2023-04-06T11:22:06.876Z,10.1
2023-04-06T11:23:00.448Z,10.1
2023-04-06T11:24:04.628Z,10.1
2023-04-06T11:26:00.436Z,10.0
2023-04-06T11:27:00.437Z,10.0
2023-04-06T11:28:00.481Z,9.8
2023-04-06T11:29:00.490Z,9.8
2023-04-06T11:30:00.852Z,9.5
2023-04-06T11:31:01.882Z,9.5
2023-04-06T11:32:02.086Z,9.6
2023-04-06T11:33:00.939Z,9.6
2023-04-06T11:34:00.490Z,9.4
2023-04-06T11:35:00.448Z,9.4
2023-04-06T11:36:00.923Z,9.5
2023-04-06T11:37:01.438Z,9.5
2023-04-06T11:38:02.961Z,9.4
2023-04-06T11:39:00.505Z,9.4
2023-04-06T11:40:00.570Z,9.2
2023-04-06T11:41:00.824Z,9.2
2023-04-06T11:42:01.076Z,9.3
2023-04-06T11:43:00.454Z,9.3
2023-04-06T11:44:00.972Z,9.4
2023-04-06T11:45:00.448Z,9.4
2023-04-06T11:46:01.677Z,9.4
2023-04-06T11:47:00.973Z,9.4
2023-04-06T11:48:00.682Z,9.3
2023-04-06T11:49:01.941Z,9.3
2023-04-06T11:50:10.421Z,9.4
2023-04-06T11:51:01.239Z,9.4
2023-04-06T11:52:00.736Z,9.3
2023-04-06T11:53:01.204Z,9.3
2023-04-06T11:54:00.440Z,9.4
2023-04-06T11:55:10.079Z,9.4
2023-04-06T11:56:00.495Z,9.3
2023-04-06T11:57:00.996Z,9.3
2023-04-06T11:58:00.448Z,9.3
2023-04-06T11:59:00.469Z,9.3
2023-04-06T12:00:00.443Z,9.4
2023-04-06T12:01:04.172Z,9.4
2023-04-06T12:02:01.950Z,9.2
2023-04-06T12:03:00.614Z,9.2
2023-04-06T12:04:00.580Z,9.2
2023-04-06T12:05:00.465Z,9.2
2023-04-06T12:06:00.444Z,9.1
2023-04-06T12:07:00.524Z,9.1
2023-04-06T12:08:02.626Z,9.0
2023-04-06T12:09:00.436Z,9.0
2023-04-06T12:10:01.330Z,9.0
2023-04-06T12:11:00.430Z,9.0
2023-04-06T12:12:00.468Z,9.1
2023-04-06T12:13:00.444Z,9.1
2023-04-06T12:14:00.424Z,9.1
2023-04-06T12:15:00.478Z,9.1
2023-04-06T12:16:00.533Z,9.3
2023-04-06T12:17:00.452Z,9.3
2023-04-06T12:18:00.467Z,9.4
2023-04-06T12:19:00.563Z,9.4
2023-04-06T12:21:00.441Z,9.4
2023-04-06T12:22:00.452Z,9.4
2023-04-06T12:23:00.445Z,9.4
2023-04-06T12:24:00.498Z,9.3
2023-04-06T12:25:00.422Z,9.3
2023-04-06T12:26:00.429Z,9.4
2023-04-06T12:27:09.276Z,9.4
2023-04-06T12:28:00.443Z,9.4
2023-04-06T12:29:00.547Z,9.4
2023-04-06T12:30:00.465Z,9.4
2023-04-06T12:31:00.422Z,9.4
2023-04-06T12:32:00.519Z,9.7
2023-04-06T12:33:00.576Z,9.7
2023-04-06T12:34:00.829Z,9.6
2023-04-06T12:35:00.445Z,9.6
2023-04-06T12:36:00.447Z,9.2
2023-04-06T12:37:00.632Z,9.2
2023-04-06T12:38:00.446Z,9.2
2023-04-06T12:39:00.488Z,9.2
2023-04-06T12:40:00.480Z,9.4
2023-04-06T12:41:00.418Z,9.4
2023-04-06T12:42:00.843Z,9.5
2023-04-06T12:43:00.428Z,9.5
2023-04-06T12:44:00.476Z,9.5
2023-04-06T12:45:00.434Z,9.5
2023-04-06T12:46:00.428Z,9.4
2023-04-06T12:47:00.458Z,9.4
2023-04-06T12:48:00.479Z,9.4
2023-04-06T12:49:00.435Z,9.4
2023-04-06T12:50:00.425Z,9.6
2023-04-06T12:51:01.718Z,9.6
2023-04-06T12:52:01.658Z,9.5
2023-04-06T12:53:00.433Z,9.5
2023-04-06T12:54:00.459Z,9.6
2023-04-06T12:55:00.990Z,9.6
2023-04-06T12:56:01.102Z,9.2
2023-04-06T12:57:00.443Z,9.2
2023-04-06T12:58:00.456Z,9.2
2023-04-06T12:59:00.587Z,9.2
2023-04-06T13:00:00.543Z,9.1
2023-04-06T13:01:00.466Z,9.1
2023-04-06T13:02:00.663Z,9.3
2023-04-06T13:03:00.466Z,9.3
2023-04-06T13:04:00.418Z,9.1
2023-04-06T13:05:00.434Z,9.1
2023-04-06T13:06:00.920Z,9.2
2023-04-06T13:07:00.443Z,9.2
2023-04-06T13:08:00.765Z,9.2
2023-04-06T13:09:00.442Z,9.2
2023-04-06T13:10:00.433Z,9.1
2023-04-06T13:11:00.442Z,9.1
2023-04-06T13:12:00.466Z,8.9
2023-04-06T13:13:00.430Z,8.9
2023-04-06T13:14:00.449Z,8.8
2023-04-06T13:15:00.430Z,8.8
2023-04-06T13:16:01.474Z,8.8
2023-04-06T13:17:00.443Z,8.8
2023-04-06T13:18:00.478Z,9.0
2023-04-06T13:19:00.450Z,9.0
2023-04-06T13:20:00.458Z,9.1
2023-04-06T13:21:00.505Z,9.1
2023-04-06T13:22:00.463Z,9.1
2023-04-06T13:23:00.473Z,9.1
2023-04-06T13:24:00.439Z,9.1
2023-04-06T13:25:00.448Z,9.1
2023-04-06T13:26:01.570Z,9.0
2023-04-06T13:27:00.449Z,9.0
2023-04-06T13:28:00.818Z,9.0
2023-04-06T13:29:00.450Z,9.0
2023-04-06T13:30:00.454Z,9.0
2023-04-06T13:31:01.450Z,9.0
2023-04-06T13:32:00.568Z,9.2
2023-04-06T13:33:00.563Z,9.2
2023-04-06T13:34:00.461Z,9.3
2023-04-06T13:35:00.449Z,9.3
2023-04-06T13:36:00.582Z,9.3
2023-04-06T13:37:00.513Z,9.3
2023-04-06T13:38:00.436Z,9.3
2023-04-06T13:39:00.458Z,9.3
2023-04-06T13:40:01.454Z,9.2
2023-04-06T13:41:00.434Z,9.2
2023-04-06T13:42:02.144Z,9.2
2023-04-06T13:43:00.453Z,9.2
2023-04-06T13:44:00.439Z,9.3
2023-04-06T13:45:00.635Z,9.3